sensor_id;sensor_type;location;lat;lon;timestamp;P1;durP1;ratioP1;P2;durP2;ratioP2
75716;SDS011;64333;50.138;14.332;2023-03-01T00:02:16;36.40;;;15.85;;
75716;SDS011;64333;50.138;14.332;2023-03-01T00:04:41;31.92;;;14.45;;
75716;SDS011;64333;50.138;14.332;2023-03-01T00:07:06;31.83;;;17.02;;
75716;SDS011;64333;50.138;14.332;2023-03-01T00:09:32;29.83;;;14.70;;
75716;SDS011;64333;50.138;14.332;2023-03-01T00:11:57;31.25;;;15.50;;
75716;SDS011;64333;50.138;14.332;2023-03-01T00:14:22;34.38;;;15.70;;
75716;SDS011;64333;50.138;14.332;2023-03-01T00:16:49;33.90;;;14.77;;
75716;SDS011;64333;50.138;14.332;2023-03-01T00:19:18;30.40;;;15.73;;
75716;SDS011;64333;50.138;14.332;2023-03-01T00:21:44;34.88;;;14.90;;
75716;SDS011;64333;50.138;14.332;2023-03-01T00:24:10;30.30;;;14.35;;
75716;SDS011;64333;50.138;14.332;2023-03-01T00:26:36;36.47;;;16.77;;
75716;SDS011;64333;50.138;14.332;2023-03-01T00:29:02;31.95;;;14.77;;
75716;SDS011;64333;50.138;14.332;2023-03-01T00:31:29;33.75;;;16.98;;
75716;SDS011;64333;50.138;14.332;2023-03-01T00:33:57;38.70;;;17.67;;
75716;SDS011;64333;50.138;14.332;2023-03-01T00:36:24;35.63;;;17.83;;
75716;SDS011;64333;50.138;14.332;2023-03-01T00:38:52;34.90;;;17.70;;
75716;SDS011;64333;50.138;14.332;2023-03-01T00:41:18;41.92;;;17.40;;
75716;SDS011;64333;50.138;14.332;2023-03-01T00:43:44;51.60;;;22.02;;
75716;SDS011;64333;50.138;14.332;2023-03-01T00:46:11;41.38;;;18.85;;
75716;SDS011;64333;50.138;14.332;2023-03-01T00:48:44;41.95;;;19.30;;
75716;SDS011;64333;50.138;14.332;2023-03-01T00:51:18;35.78;;;17.75;;
75716;SDS011;64333;50.138;14.332;2023-03-01T00:53:45;33.90;;;15.25;;
75716;SDS011;64333;50.138;14.332;2023-03-01T00:56:12;39.45;;;17.40;;
75716;SDS011;64333;50.138;14.332;2023-03-01T00:58:39;37.35;;;17.80;;
75716;SDS011;64333;50.138;14.332;2023-03-01T01:01:11;37.78;;;15.77;;
75716;SDS011;64333;50.138;14.332;2023-03-01T01:03:51;37.75;;;16.92;;
75716;SDS011;64333;50.138;14.332;2023-03-01T01:06:22;37.67;;;16.92;;
75716;SDS011;64333;50.138;14.332;2023-03-01T01:08:50;34.28;;;17.20;;
75716;SDS011;64333;50.138;14.332;2023-03-01T01:11:17;40.83;;;16.33;;
75716;SDS011;64333;50.138;14.332;2023-03-01T01:13:44;34.45;;;17.35;;
75716;SDS011;64333;50.138;14.332;2023-03-01T01:16:10;37.63;;;16.55;;
75716;SDS011;64333;50.138;14.332;2023-03-01T01:18:36;36.15;;;16.77;;
75716;SDS011;64333;50.138;14.332;2023-03-01T01:21:06;41.10;;;17.67;;
75716;SDS011;64333;50.138;14.332;2023-03-01T01:23:36;39.30;;;17.80;;
75716;SDS011;64333;50.138;14.332;2023-03-01T01:26:03;39.35;;;17.45;;
75716;SDS011;64333;50.138;14.332;2023-03-01T01:28:29;36.45;;;15.40;;
75716;SDS011;64333;50.138;14.332;2023-03-01T01:30:55;40.17;;;16.08;;
75716;SDS011;64333;50.138;14.332;2023-03-01T01:33:20;36.00;;;16.35;;
75716;SDS011;64333;50.138;14.332;2023-03-01T01:35:45;35.45;;;15.48;;
75716;SDS011;64333;50.138;14.332;2023-03-01T01:38:11;34.78;;;15.80;;
75716;SDS011;64333;50.138;14.332;2023-03-01T01:40:42;40.58;;;17.80;;
75716;SDS011;64333;50.138;14.332;2023-03-01T01:43:24;33.25;;;15.45;;
75716;SDS011;64333;50.138;14.332;2023-03-01T01:45:51;34.65;;;14.55;;
75716;SDS011;64333;50.138;14.332;2023-03-01T01:48:21;40.15;;;17.58;;
75716;SDS011;64333;50.138;14.332;2023-03-01T01:50:55;47.95;;;18.05;;
75716;SDS011;64333;50.138;14.332;2023-03-01T01:53:23;36.03;;;15.45;;
75716;SDS011;64333;50.138;14.332;2023-03-01T01:55:54;34.50;;;17.17;;
75716;SDS011;64333;50.138;14.332;2023-03-01T01:58:23;37.15;;;17.85;;
75716;SDS011;64333;50.138;14.332;2023-03-01T02:00:53;34.05;;;15.13;;
75716;SDS011;64333;50.138;14.332;2023-03-01T02:03:26;38.63;;;15.20;;
75716;SDS011;64333;50.138;14.332;2023-03-01T02:08:27;38.40;;;17.92;;
75716;SDS011;64333;50.138;14.332;2023-03-01T02:10:55;36.88;;;15.40;;
75716;SDS011;64333;50.138;14.332;2023-03-01T02:13:23;32.65;;;14.88;;
75716;SDS011;64333;50.138;14.332;2023-03-01T02:15:48;44.72;;;18.52;;
75716;SDS011;64333;50.138;14.332;2023-03-01T02:18:15;40.72;;;17.55;;
75716;SDS011;64333;50.138;14.332;2023-03-01T02:23:29;30.70;;;14.60;;
75716;SDS011;64333;50.138;14.332;2023-03-01T02:26:01;34.05;;;15.57;;
75716;SDS011;64333;50.138;14.332;2023-03-01T02:28:34;35.63;;;16.50;;
75716;SDS011;64333;50.138;14.332;2023-03-01T02:31:01;36.45;;;16.80;;
75716;SDS011;64333;50.138;14.332;2023-03-01T02:33:46;31.05;;;14.73;;
75716;SDS011;64333;50.138;14.332;2023-03-01T02:36:34;38.35;;;15.90;;
75716;SDS011;64333;50.138;14.332;2023-03-01T02:39:03;33.60;;;15.07;;
75716;SDS011;64333;50.138;14.332;2023-03-01T02:41:32;38.65;;;16.33;;
75716;SDS011;64333;50.138;14.332;2023-03-01T02:44:01;38.13;;;15.77;;
75716;SDS011;64333;50.138;14.332;2023-03-01T02:46:27;34.65;;;15.45;;
75716;SDS011;64333;50.138;14.332;2023-03-01T02:48:53;34.00;;;16.08;;
75716;SDS011;64333;50.138;14.332;2023-03-01T02:54:03;33.55;;;14.68;;
75716;SDS011;64333;50.138;14.332;2023-03-01T02:56:44;37.90;;;15.98;;
75716;SDS011;64333;50.138;14.332;2023-03-01T02:59:13;32.20;;;15.32;;
75716;SDS011;64333;50.138;14.332;2023-03-01T03:01:41;30.75;;;13.95;;
75716;SDS011;64333;50.138;14.332;2023-03-01T03:04:07;30.98;;;13.50;;
75716;SDS011;64333;50.138;14.332;2023-03-01T03:06:35;32.58;;;15.35;;
75716;SDS011;64333;50.138;14.332;2023-03-01T03:09:01;33.45;;;14.50;;
75716;SDS011;64333;50.138;14.332;2023-03-01T03:11:28;30.00;;;14.60;;
75716;SDS011;64333;50.138;14.332;2023-03-01T03:13:53;32.50;;;15.38;;
75716;SDS011;64333;50.138;14.332;2023-03-01T03:16:19;42.53;;;17.58;;
75716;SDS011;64333;50.138;14.332;2023-03-01T03:18:45;31.50;;;15.52;;
75716;SDS011;64333;50.138;14.332;2023-03-01T03:21:11;36.55;;;16.15;;
75716;SDS011;64333;50.138;14.332;2023-03-01T03:23:37;37.13;;;16.05;;
75716;SDS011;64333;50.138;14.332;2023-03-01T03:26:03;35.40;;;15.95;;
75716;SDS011;64333;50.138;14.332;2023-03-01T03:28:33;31.88;;;16.40;;
75716;SDS011;64333;50.138;14.332;2023-03-01T03:30:59;34.85;;;14.30;;
75716;SDS011;64333;50.138;14.332;2023-03-01T03:33:31;32.53;;;16.45;;
75716;SDS011;64333;50.138;14.332;2023-03-01T03:35:57;36.88;;;16.13;;
75716;SDS011;64333;50.138;14.332;2023-03-01T03:38:23;38.63;;;15.63;;
75716;SDS011;64333;50.138;14.332;2023-03-01T03:40:50;36.50;;;15.75;;
75716;SDS011;64333;50.138;14.332;2023-03-01T03:43:31;30.85;;;14.85;;
75716;SDS011;64333;50.138;14.332;2023-03-01T03:45:58;37.25;;;15.15;;
75716;SDS011;64333;50.138;14.332;2023-03-01T03:48:23;34.78;;;15.27;;
75716;SDS011;64333;50.138;14.332;2023-03-01T03:50:50;31.48;;;14.23;;
75716;SDS011;64333;50.138;14.332;2023-03-01T03:53:17;32.90;;;15.38;;
75716;SDS011;64333;50.138;14.332;2023-03-01T03:55:44;37.25;;;15.45;;
75716;SDS011;64333;50.138;14.332;2023-03-01T03:58:10;32.58;;;14.77;;
75716;SDS011;64333;50.138;14.332;2023-03-01T04:00:36;32.45;;;14.68;;
75716;SDS011;64333;50.138;14.332;2023-03-01T04:03:03;35.33;;;15.45;;
75716;SDS011;64333;50.138;14.332;2023-03-01T04:05:29;29.42;;;14.85;;
75716;SDS011;64333;50.138;14.332;2023-03-01T04:07:55;36.78;;;16.10;;
75716;SDS011;64333;50.138;14.332;2023-03-01T04:10:28;34.08;;;15.82;;
75716;SDS011;64333;50.138;14.332;2023-03-01T04:12:55;31.33;;;13.77;;
75716;SDS011;64333;50.138;14.332;2023-03-01T04:15:21;36.53;;;15.07;;
75716;SDS011;64333;50.138;14.332;2023-03-01T04:17:49;34.95;;;14.38;;
75716;SDS011;64333;50.138;14.332;2023-03-01T04:20:16;34.08;;;15.50;;
75716;SDS011;64333;50.138;14.332;2023-03-01T04:22:43;35.97;;;15.93;;
75716;SDS011;64333;50.138;14.332;2023-03-01T04:25:11;31.55;;;15.80;;
75716;SDS011;64333;50.138;14.332;2023-03-01T04:27:39;37.08;;;15.07;;
75716;SDS011;64333;50.138;14.332;2023-03-01T04:30:05;33.80;;;16.63;;
75716;SDS011;64333;50.138;14.332;2023-03-01T04:32:31;34.08;;;14.52;;
75716;SDS011;64333;50.138;14.332;2023-03-01T04:34:56;34.38;;;14.38;;
75716;SDS011;64333;50.138;14.332;2023-03-01T04:37:22;31.88;;;13.43;;
75716;SDS011;64333;50.138;14.332;2023-03-01T04:39:48;31.08;;;13.75;;
75716;SDS011;64333;50.138;14.332;2023-03-01T04:42:14;37.38;;;15.23;;
75716;SDS011;64333;50.138;14.332;2023-03-01T04:44:41;33.63;;;16.00;;
75716;SDS011;64333;50.138;14.332;2023-03-01T04:47:07;36.00;;;14.68;;
75716;SDS011;64333;50.138;14.332;2023-03-01T04:49:32;32.50;;;16.08;;
75716;SDS011;64333;50.138;14.332;2023-03-01T04:51:58;32.55;;;14.65;;
75716;SDS011;64333;50.138;14.332;2023-03-01T04:54:27;39.22;;;15.25;;
75716;SDS011;64333;50.138;14.332;2023-03-01T04:56:53;34.15;;;15.55;;
75716;SDS011;64333;50.138;14.332;2023-03-01T04:59:18;31.63;;;15.70;;
75716;SDS011;64333;50.138;14.332;2023-03-01T05:01:47;36.85;;;15.25;;
75716;SDS011;64333;50.138;14.332;2023-03-01T05:04:16;36.20;;;14.93;;
75716;SDS011;64333;50.138;14.332;2023-03-01T05:06:41;28.83;;;13.90;;
75716;SDS011;64333;50.138;14.332;2023-03-01T05:09:07;34.72;;;15.10;;
75716;SDS011;64333;50.138;14.332;2023-03-01T05:11:32;36.88;;;14.85;;
75716;SDS011;64333;50.138;14.332;2023-03-01T05:14:01;28.92;;;14.32;;
75716;SDS011;64333;50.138;14.332;2023-03-01T05:16:28;36.15;;;15.05;;
75716;SDS011;64333;50.138;14.332;2023-03-01T05:18:55;37.20;;;15.30;;
75716;SDS011;64333;50.138;14.332;2023-03-01T05:21:21;32.10;;;11.93;;
75716;SDS011;64333;50.138;14.332;2023-03-01T05:23:47;35.10;;;14.68;;
75716;SDS011;64333;50.138;14.332;2023-03-01T05:26:12;33.55;;;14.85;;
75716;SDS011;64333;50.138;14.332;2023-03-01T05:28:38;33.95;;;15.20;;
75716;SDS011;64333;50.138;14.332;2023-03-01T05:31:04;34.38;;;14.88;;
75716;SDS011;64333;50.138;14.332;2023-03-01T05:33:34;31.35;;;15.32;;
75716;SDS011;64333;50.138;14.332;2023-03-01T05:36:04;32.47;;;12.70;;
75716;SDS011;64333;50.138;14.332;2023-03-01T05:38:30;35.17;;;14.30;;
75716;SDS011;64333;50.138;14.332;2023-03-01T05:40:56;32.88;;;15.73;;
75716;SDS011;64333;50.138;14.332;2023-03-01T05:43:21;30.73;;;15.30;;
75716;SDS011;64333;50.138;14.332;2023-03-01T05:45:47;34.00;;;14.77;;
75716;SDS011;64333;50.138;14.332;2023-03-01T05:48:13;32.00;;;15.23;;
75716;SDS011;64333;50.138;14.332;2023-03-01T05:50:40;39.85;;;15.00;;
75716;SDS011;64333;50.138;14.332;2023-03-01T05:53:08;35.53;;;16.60;;
75716;SDS011;64333;50.138;14.332;2023-03-01T05:55:36;32.70;;;14.02;;
75716;SDS011;64333;50.138;14.332;2023-03-01T05:58:03;31.58;;;14.68;;
75716;SDS011;64333;50.138;14.332;2023-03-01T06:00:31;38.17;;;16.85;;
75716;SDS011;64333;50.138;14.332;2023-03-01T06:02:58;42.90;;;16.80;;
75716;SDS011;64333;50.138;14.332;2023-03-01T06:05:25;39.30;;;17.38;;
75716;SDS011;64333;50.138;14.332;2023-03-01T06:07:51;43.38;;;16.90;;
75716;SDS011;64333;50.138;14.332;2023-03-01T06:10:18;43.03;;;17.63;;
75716;SDS011;64333;50.138;14.332;2023-03-01T06:12:45;47.03;;;17.65;;
75716;SDS011;64333;50.138;14.332;2023-03-01T06:15:11;37.17;;;16.52;;
75716;SDS011;64333;50.138;14.332;2023-03-01T06:17:39;36.63;;;16.75;;
75716;SDS011;64333;50.138;14.332;2023-03-01T06:22:39;29.52;;;15.13;;
75716;SDS011;64333;50.138;14.332;2023-03-01T06:25:05;36.38;;;17.13;;
75716;SDS011;64333;50.138;14.332;2023-03-01T06:27:32;34.60;;;15.82;;
75716;SDS011;64333;50.138;14.332;2023-03-01T06:29:57;33.42;;;17.00;;
75716;SDS011;64333;50.138;14.332;2023-03-01T06:32:23;27.60;;;14.55;;
75716;SDS011;64333;50.138;14.332;2023-03-01T06:34:49;36.42;;;15.98;;
75716;SDS011;64333;50.138;14.332;2023-03-01T06:37:14;27.60;;;15.05;;
75716;SDS011;64333;50.138;14.332;2023-03-01T06:39:40;29.27;;;16.08;;
75716;SDS011;64333;50.138;14.332;2023-03-01T06:42:05;29.27;;;15.80;;
75716;SDS011;64333;50.138;14.332;2023-03-01T06:44:32;29.70;;;15.68;;
75716;SDS011;64333;50.138;14.332;2023-03-01T06:46:58;31.33;;;15.18;;
75716;SDS011;64333;50.138;14.332;2023-03-01T06:49:24;30.33;;;15.00;;
75716;SDS011;64333;50.138;14.332;2023-03-01T06:51:49;29.67;;;14.73;;
75716;SDS011;64333;50.138;14.332;2023-03-01T06:54:15;34.08;;;17.77;;
75716;SDS011;64333;50.138;14.332;2023-03-01T06:56:40;39.00;;;19.05;;
75716;SDS011;64333;50.138;14.332;2023-03-01T06:59:05;35.95;;;17.05;;
75716;SDS011;64333;50.138;14.332;2023-03-01T07:01:31;37.10;;;18.35;;
75716;SDS011;64333;50.138;14.332;2023-03-01T07:03:56;31.00;;;16.15;;
75716;SDS011;64333;50.138;14.332;2023-03-01T07:06:22;32.45;;;17.05;;
75716;SDS011;64333;50.138;14.332;2023-03-01T07:08:48;33.55;;;16.92;;
75716;SDS011;64333;50.138;14.332;2023-03-01T07:11:13;29.88;;;16.88;;
75716;SDS011;64333;50.138;14.332;2023-03-01T07:13:39;37.45;;;17.85;;
75716;SDS011;64333;50.138;14.332;2023-03-01T07:16:05;33.92;;;17.02;;
75716;SDS011;64333;50.138;14.332;2023-03-01T07:18:31;32.42;;;17.02;;
75716;SDS011;64333;50.138;14.332;2023-03-01T07:20:56;31.88;;;17.83;;
75716;SDS011;64333;50.138;14.332;2023-03-01T07:23:22;31.70;;;16.05;;
75716;SDS011;64333;50.138;14.332;2023-03-01T07:25:51;31.00;;;16.88;;
75716;SDS011;64333;50.138;14.332;2023-03-01T07:30:43;29.70;;;16.13;;
75716;SDS011;64333;50.138;14.332;2023-03-01T07:33:08;27.95;;;15.95;;
75716;SDS011;64333;50.138;14.332;2023-03-01T07:35:34;30.50;;;17.02;;
75716;SDS011;64333;50.138;14.332;2023-03-01T07:37:59;26.98;;;15.25;;
75716;SDS011;64333;50.138;14.332;2023-03-01T07:40:24;29.75;;;16.85;;
75716;SDS011;64333;50.138;14.332;2023-03-01T07:42:54;28.92;;;15.63;;
75716;SDS011;64333;50.138;14.332;2023-03-01T07:45:20;30.80;;;16.33;;
75716;SDS011;64333;50.138;14.332;2023-03-01T07:47:46;31.67;;;18.02;;
75716;SDS011;64333;50.138;14.332;2023-03-01T07:50:11;31.35;;;17.20;;
75716;SDS011;64333;50.138;14.332;2023-03-01T07:52:38;31.67;;;18.05;;
75716;SDS011;64333;50.138;14.332;2023-03-01T07:55:03;28.63;;;16.48;;
75716;SDS011;64333;50.138;14.332;2023-03-01T07:57:29;29.98;;;16.23;;
75716;SDS011;64333;50.138;14.332;2023-03-01T07:59:54;28.33;;;16.85;;
75716;SDS011;64333;50.138;14.332;2023-03-01T08:02:20;29.13;;;16.48;;
75716;SDS011;64333;50.138;14.332;2023-03-01T08:04:45;29.58;;;18.00;;
75716;SDS011;64333;50.138;14.332;2023-03-01T08:07:11;27.83;;;16.23;;
75716;SDS011;64333;50.138;14.332;2023-03-01T08:09:36;29.60;;;17.30;;
75716;SDS011;64333;50.138;14.332;2023-03-01T08:12:02;29.02;;;16.83;;
75716;SDS011;64333;50.138;14.332;2023-03-01T08:14:29;32.28;;;17.15;;
75716;SDS011;64333;50.138;14.332;2023-03-01T08:16:55;29.67;;;18.48;;
75716;SDS011;64333;50.138;14.332;2023-03-01T08:19:21;32.88;;;18.50;;
75716;SDS011;64333;50.138;14.332;2023-03-01T08:21:46;33.53;;;17.90;;
75716;SDS011;64333;50.138;14.332;2023-03-01T08:24:11;32.05;;;18.25;;
75716;SDS011;64333;50.138;14.332;2023-03-01T08:26:37;29.40;;;17.40;;
75716;SDS011;64333;50.138;14.332;2023-03-01T08:29:03;30.15;;;16.33;;
75716;SDS011;64333;50.138;14.332;2023-03-01T08:31:33;28.98;;;16.10;;
75716;SDS011;64333;50.138;14.332;2023-03-01T08:34:01;31.67;;;16.60;;
75716;SDS011;64333;50.138;14.332;2023-03-01T08:36:29;31.20;;;17.08;;
75716;SDS011;64333;50.138;14.332;2023-03-01T08:38:56;25.73;;;16.08;;
75716;SDS011;64333;50.138;14.332;2023-03-01T08:41:22;27.17;;;16.00;;
75716;SDS011;64333;50.138;14.332;2023-03-01T08:43:48;25.58;;;16.10;;
75716;SDS011;64333;50.138;14.332;2023-03-01T08:46:13;31.08;;;17.33;;
75716;SDS011;64333;50.138;14.332;2023-03-01T08:48:39;26.88;;;15.98;;
75716;SDS011;64333;50.138;14.332;2023-03-01T08:53:40;25.17;;;16.85;;
75716;SDS011;64333;50.138;14.332;2023-03-01T08:56:06;25.85;;;16.92;;
75716;SDS011;64333;50.138;14.332;2023-03-01T08:58:32;26.88;;;15.25;;
75716;SDS011;64333;50.138;14.332;2023-03-01T09:00:58;26.23;;;16.17;;
75716;SDS011;64333;50.138;14.332;2023-03-01T09:03:24;28.35;;;15.95;;
75716;SDS011;64333;50.138;14.332;2023-03-01T09:05:51;28.42;;;16.67;;
75716;SDS011;64333;50.138;14.332;2023-03-01T09:08:17;24.17;;;15.57;;
75716;SDS011;64333;50.138;14.332;2023-03-01T09:10:43;24.48;;;16.65;;
75716;SDS011;64333;50.138;14.332;2023-03-01T09:13:08;25.48;;;15.57;;
75716;SDS011;64333;50.138;14.332;2023-03-01T09:15:36;25.20;;;16.05;;
75716;SDS011;64333;50.138;14.332;2023-03-01T09:18:02;26.60;;;15.40;;
75716;SDS011;64333;50.138;14.332;2023-03-01T09:20:27;28.70;;;16.85;;
75716;SDS011;64333;50.138;14.332;2023-03-01T09:22:53;28.33;;;17.20;;
75716;SDS011;64333;50.138;14.332;2023-03-01T09:25:18;26.40;;;15.70;;
75716;SDS011;64333;50.138;14.332;2023-03-01T09:27:44;26.30;;;16.63;;
75716;SDS011;64333;50.138;14.332;2023-03-01T09:30:09;24.42;;;15.80;;
75716;SDS011;64333;50.138;14.332;2023-03-01T09:32:35;25.88;;;16.10;;
75716;SDS011;64333;50.138;14.332;2023-03-01T09:35:00;29.50;;;17.00;;
75716;SDS011;64333;50.138;14.332;2023-03-01T09:37:28;23.55;;;15.45;;
75716;SDS011;64333;50.138;14.332;2023-03-01T09:39:53;25.83;;;17.52;;
75716;SDS011;64333;50.138;14.332;2023-03-01T09:42:19;26.55;;;16.60;;
75716;SDS011;64333;50.138;14.332;2023-03-01T09:47:56;27.75;;;15.75;;
75716;SDS011;64333;50.138;14.332;2023-03-01T09:50:21;27.88;;;16.40;;
75716;SDS011;64333;50.138;14.332;2023-03-01T10:12:16;23.38;;;14.88;;
75716;SDS011;64333;50.138;14.332;2023-03-01T10:15:50;21.60;;;13.88;;
75716;SDS011;64333;50.138;14.332;2023-03-01T10:19:00;22.25;;;14.13;;
75716;SDS011;64333;50.138;14.332;2023-03-01T10:22:20;20.52;;;13.48;;
75716;SDS011;64333;50.138;14.332;2023-03-01T10:35:18;20.73;;;13.38;;
75716;SDS011;64333;50.138;14.332;2023-03-01T10:38:14;18.02;;;13.10;;
75716;SDS011;64333;50.138;14.332;2023-03-01T10:44:05;19.48;;;13.38;;
75716;SDS011;64333;50.138;14.332;2023-03-01T10:47:02;19.20;;;13.52;;
75716;SDS011;64333;50.138;14.332;2023-03-01T10:49:31;19.90;;;13.27;;
75716;SDS011;64333;50.138;14.332;2023-03-01T10:58:25;19.48;;;13.25;;
75716;SDS011;64333;50.138;14.332;2023-03-01T11:03:44;18.20;;;12.80;;
75716;SDS011;64333;50.138;14.332;2023-03-01T11:11:18;21.13;;;14.05;;
75716;SDS011;64333;50.138;14.332;2023-03-01T11:13:49;18.85;;;12.70;;
75716;SDS011;64333;50.138;14.332;2023-03-01T11:19:21;18.67;;;12.65;;
75716;SDS011;64333;50.138;14.332;2023-03-01T11:24:30;18.65;;;12.93;;
75716;SDS011;64333;50.138;14.332;2023-03-01T11:27:00;20.52;;;12.90;;
75716;SDS011;64333;50.138;14.332;2023-03-01T11:30:31;20.25;;;13.85;;
75716;SDS011;64333;50.138;14.332;2023-03-01T11:32:42;18.67;;;13.23;;
75716;SDS011;64333;50.138;14.332;2023-03-01T11:35:26;17.98;;;13.45;;
75716;SDS011;64333;50.138;14.332;2023-03-01T11:38:11;19.83;;;13.60;;
75716;SDS011;64333;50.138;14.332;2023-03-01T11:40:44;18.95;;;13.10;;
75716;SDS011;64333;50.138;14.332;2023-03-01T11:43:23;20.23;;;13.93;;
75716;SDS011;64333;50.138;14.332;2023-03-01T11:51:56;23.35;;;13.70;;
75716;SDS011;64333;50.138;14.332;2023-03-01T12:03:00;21.05;;;13.27;;
75716;SDS011;64333;50.138;14.332;2023-03-01T12:08:36;19.40;;;13.63;;
75716;SDS011;64333;50.138;14.332;2023-03-01T12:16:20;21.38;;;13.65;;
75716;SDS011;64333;50.138;14.332;2023-03-01T12:35:43;21.88;;;13.95;;
75716;SDS011;64333;50.138;14.332;2023-03-01T12:46:21;19.70;;;13.77;;
75716;SDS011;64333;50.138;14.332;2023-03-01T12:51:24;20.65;;;14.57;;
75716;SDS011;64333;50.138;14.332;2023-03-01T12:53:54;19.23;;;13.82;;
75716;SDS011;64333;50.138;14.332;2023-03-01T12:56:23;22.05;;;14.60;;
75716;SDS011;64333;50.138;14.332;2023-03-01T12:58:56;22.77;;;15.15;;
75716;SDS011;64333;50.138;14.332;2023-03-01T13:01:39;22.77;;;14.63;;
75716;SDS011;64333;50.138;14.332;2023-03-01T13:11:59;17.73;;;12.32;;
75716;SDS011;64333;50.138;14.332;2023-03-01T13:16:51;20.67;;;13.32;;
75716;SDS011;64333;50.138;14.332;2023-03-01T13:19:27;19.80;;;12.75;;
75716;SDS011;64333;50.138;14.332;2023-03-01T13:21:55;18.88;;;12.70;;
75716;SDS011;64333;50.138;14.332;2023-03-01T13:34:45;17.95;;;12.27;;
75716;SDS011;64333;50.138;14.332;2023-03-01T13:37:23;16.85;;;11.82;;
75716;SDS011;64333;50.138;14.332;2023-03-01T13:39:55;19.73;;;11.50;;
75716;SDS011;64333;50.138;14.332;2023-03-01T13:42:36;20.58;;;13.18;;
75716;SDS011;64333;50.138;14.332;2023-03-01T13:45:15;17.08;;;12.70;;
75716;SDS011;64333;50.138;14.332;2023-03-01T13:47:44;19.50;;;12.25;;
75716;SDS011;64333;50.138;14.332;2023-03-01T13:50:18;19.77;;;12.32;;
75716;SDS011;64333;50.138;14.332;2023-03-01T13:52:55;19.02;;;12.80;;
75716;SDS011;64333;50.138;14.332;2023-03-01T13:57:51;18.58;;;13.10;;
75716;SDS011;64333;50.138;14.332;2023-03-01T14:00:31;19.13;;;12.30;;
75716;SDS011;64333;50.138;14.332;2023-03-01T14:03:13;16.27;;;10.90;;
75716;SDS011;64333;50.138;14.332;2023-03-01T14:05:57;19.08;;;10.88;;
75716;SDS011;64333;50.138;14.332;2023-03-01T14:08:25;18.33;;;11.50;;
75716;SDS011;64333;50.138;14.332;2023-03-01T14:10:54;16.67;;;11.73;;
75716;SDS011;64333;50.138;14.332;2023-03-01T14:18:50;19.25;;;12.90;;
75716;SDS011;64333;50.138;14.332;2023-03-01T14:21:27;18.70;;;13.02;;
75716;SDS011;64333;50.138;14.332;2023-03-01T14:23:54;20.05;;;13.38;;
75716;SDS011;64333;50.138;14.332;2023-03-01T14:26:20;22.23;;;13.32;;
75716;SDS011;64333;50.138;14.332;2023-03-01T14:28:47;21.33;;;13.77;;
75716;SDS011;64333;50.138;14.332;2023-03-01T14:34:02;23.98;;;14.20;;
75716;SDS011;64333;50.138;14.332;2023-03-01T14:36:29;20.17;;;13.45;;
75716;SDS011;64333;50.138;14.332;2023-03-01T14:38:56;21.70;;;13.20;;
75716;SDS011;64333;50.138;14.332;2023-03-01T14:41:29;20.70;;;12.68;;
75716;SDS011;64333;50.138;14.332;2023-03-01T14:44:12;19.67;;;13.25;;
75716;SDS011;64333;50.138;14.332;2023-03-01T14:46:43;21.52;;;13.50;;
75716;SDS011;64333;50.138;14.332;2023-03-01T14:49:11;21.02;;;13.23;;
75716;SDS011;64333;50.138;14.332;2023-03-01T14:51:41;19.08;;;12.77;;
75716;SDS011;64333;50.138;14.332;2023-03-01T14:54:45;21.67;;;14.13;;
75716;SDS011;64333;50.138;14.332;2023-03-01T14:57:12;20.25;;;12.70;;
75716;SDS011;64333;50.138;14.332;2023-03-01T14:59:51;21.10;;;12.98;;
75716;SDS011;64333;50.138;14.332;2023-03-01T15:02:20;19.67;;;11.40;;
75716;SDS011;64333;50.138;14.332;2023-03-01T15:04:52;20.30;;;12.48;;
75716;SDS011;64333;50.138;14.332;2023-03-01T15:07:26;20.42;;;11.65;;
75716;SDS011;64333;50.138;14.332;2023-03-01T15:09:56;21.58;;;12.70;;
75716;SDS011;64333;50.138;14.332;2023-03-01T15:14:54;20.83;;;12.07;;
75716;SDS011;64333;50.138;14.332;2023-03-01T15:17:23;19.10;;;11.50;;
75716;SDS011;64333;50.138;14.332;2023-03-01T15:19:55;18.85;;;11.48;;
75716;SDS011;64333;50.138;14.332;2023-03-01T15:22:21;21.75;;;11.60;;
75716;SDS011;64333;50.138;14.332;2023-03-01T15:24:50;20.48;;;11.57;;
75716;SDS011;64333;50.138;14.332;2023-03-01T15:27:16;19.83;;;12.43;;
75716;SDS011;64333;50.138;14.332;2023-03-01T15:29:55;19.63;;;11.98;;
75716;SDS011;64333;50.138;14.332;2023-03-01T15:32:29;20.95;;;12.48;;
75716;SDS011;64333;50.138;14.332;2023-03-01T15:34:57;20.70;;;11.52;;
75716;SDS011;64333;50.138;14.332;2023-03-01T15:40:18;22.83;;;11.27;;
75716;SDS011;64333;50.138;14.332;2023-03-01T15:42:49;21.92;;;12.07;;
75716;SDS011;64333;50.138;14.332;2023-03-01T15:47:41;22.98;;;12.65;;
75716;SDS011;64333;50.138;14.332;2023-03-01T15:50:17;22.15;;;12.60;;
75716;SDS011;64333;50.138;14.332;2023-03-01T15:52:45;22.00;;;11.82;;
75716;SDS011;64333;50.138;14.332;2023-03-01T15:55:19;21.80;;;12.27;;
75716;SDS011;64333;50.138;14.332;2023-03-01T15:57:47;21.10;;;10.80;;
75716;SDS011;64333;50.138;14.332;2023-03-01T16:00:14;21.63;;;11.13;;
75716;SDS011;64333;50.138;14.332;2023-03-01T16:02:41;21.98;;;11.38;;
75716;SDS011;64333;50.138;14.332;2023-03-01T16:07:44;20.55;;;11.90;;
75716;SDS011;64333;50.138;14.332;2023-03-01T16:10:10;22.05;;;12.73;;
75716;SDS011;64333;50.138;14.332;2023-03-01T16:12:36;23.15;;;11.95;;
75716;SDS011;64333;50.138;14.332;2023-03-01T16:15:01;23.42;;;11.30;;
75716;SDS011;64333;50.138;14.332;2023-03-01T16:17:27;21.98;;;12.10;;
75716;SDS011;64333;50.138;14.332;2023-03-01T16:19:53;24.48;;;12.25;;
75716;SDS011;64333;50.138;14.332;2023-03-01T16:22:18;21.48;;;12.18;;
75716;SDS011;64333;50.138;14.332;2023-03-01T16:24:49;23.35;;;12.20;;
75716;SDS011;64333;50.138;14.332;2023-03-01T16:27:15;24.00;;;11.50;;
75716;SDS011;64333;50.138;14.332;2023-03-01T16:29:40;22.08;;;11.57;;
75716;SDS011;64333;50.138;14.332;2023-03-01T16:32:06;24.70;;;12.90;;
75716;SDS011;64333;50.138;14.332;2023-03-01T16:34:31;25.10;;;13.13;;
75716;SDS011;64333;50.138;14.332;2023-03-01T16:36:56;23.15;;;11.40;;
75716;SDS011;64333;50.138;14.332;2023-03-01T16:39:22;25.33;;;13.10;;
75716;SDS011;64333;50.138;14.332;2023-03-01T16:41:47;24.10;;;13.18;;
75716;SDS011;64333;50.138;14.332;2023-03-01T16:44:12;21.67;;;12.05;;
75716;SDS011;64333;50.138;14.332;2023-03-01T16:46:40;25.85;;;12.90;;
75716;SDS011;64333;50.138;14.332;2023-03-01T16:49:07;26.67;;;12.57;;
75716;SDS011;64333;50.138;14.332;2023-03-01T16:51:32;21.40;;;12.05;;
75716;SDS011;64333;50.138;14.332;2023-03-01T16:53:59;28.58;;;13.80;;
75716;SDS011;64333;50.138;14.332;2023-03-01T16:56:25;37.30;;;19.13;;
75716;SDS011;64333;50.138;14.332;2023-03-01T16:58:50;33.08;;;18.88;;
75716;SDS011;64333;50.138;14.332;2023-03-01T17:01:18;26.90;;;15.15;;
75716;SDS011;64333;50.138;14.332;2023-03-01T17:03:46;28.67;;;14.70;;